createdAt,value
2019-02-11T00:00:43.631Z,0.50
2019-02-11T00:03:12.290Z,0.47
2019-02-11T00:05:40.755Z,0.50
2019-02-11T00:08:09.275Z,0.40
2019-02-11T00:10:37.714Z,0.40
2019-02-11T00:13:10.661Z,0.75
2019-02-11T00:15:36.353Z,0.40
2019-02-11T00:18:04.866Z,0.40
2019-02-11T00:20:33.478Z,0.72
2019-02-11T00:23:01.926Z,0.40
2019-02-11T00:25:30.375Z,0.40
2019-02-11T00:27:58.919Z,0.40
2019-02-11T00:30:27.514Z,0.50
2019-02-11T00:32:56.574Z,0.72
2019-02-11T00:35:25.065Z,0.55
2019-02-11T00:37:53.582Z,0.50
2019-02-11T00:40:22.143Z,0.40
2019-02-11T00:42:50.646Z,0.60
2019-02-11T00:45:19.091Z,0.50
2019-02-11T00:47:47.640Z,0.40
2019-02-11T00:50:16.162Z,0.40
2019-02-11T00:52:44.686Z,0.40
2019-02-11T00:55:13.230Z,0.45
2019-02-11T00:57:41.674Z,0.50
2019-02-11T01:00:12.283Z,0.50
2019-02-11T01:02:40.802Z,0.40
2019-02-11T01:05:09.405Z,0.40
2019-02-11T01:07:37.858Z,0.50
2019-02-11T01:10:09.442Z,0.50
2019-02-11T01:12:38.048Z,0.40
2019-02-11T01:15:09.182Z,0.50
2019-02-11T01:17:56.992Z,0.40
2019-02-11T01:20:25.518Z,0.45
2019-02-11T01:22:54.123Z,0.50
2019-02-11T01:25:22.566Z,0.40
2019-02-11T01:27:51.087Z,0.40
2019-02-11T01:30:19.625Z,0.40
2019-02-11T01:32:48.075Z,0.42
2019-02-11T01:35:16.529Z,0.55
2019-02-11T01:37:45.139Z,0.40
2019-02-11T01:40:13.656Z,0.50
2019-02-11T01:42:42.180Z,0.40
2019-02-11T01:45:12.056Z,0.50
2019-02-11T01:47:40.579Z,0.70
2019-02-11T01:50:11.458Z,0.50
2019-02-11T01:52:39.908Z,0.40
2019-02-11T01:55:08.583Z,0.40
2019-02-11T01:57:37.179Z,0.50
2019-02-11T02:00:09.199Z,0.50
2019-02-11T02:02:37.723Z,0.47
2019-02-11T02:05:07.774Z,0.50
2019-02-11T02:07:36.324Z,0.50
2019-02-11T02:10:08.150Z,0.40
2019-02-11T02:12:36.595Z,0.50
2019-02-11T02:15:07.179Z,0.68
2019-02-11T02:17:35.703Z,0.40
2019-02-11T02:20:06.871Z,0.40
2019-02-11T02:22:35.406Z,0.53
2019-02-11T02:25:04.233Z,0.50
2019-02-11T02:27:32.778Z,0.50
2019-02-11T02:30:01.309Z,0.55
2019-02-11T02:32:29.828Z,0.50
2019-02-11T02:34:58.373Z,0.40
2019-02-11T02:37:26.894Z,0.60
2019-02-11T02:39:55.417Z,0.42
2019-02-11T02:42:23.953Z,0.50
2019-02-11T02:44:52.478Z,0.50
2019-02-11T02:47:21.003Z,0.60
2019-02-11T02:49:49.550Z,0.88
2019-02-11T02:52:18.069Z,0.40
2019-02-11T02:54:46.585Z,0.50
2019-02-11T02:57:15.122Z,0.60
2019-02-11T02:59:43.569Z,0.50
2019-02-11T03:02:12.171Z,0.50
2019-02-11T03:04:40.705Z,0.40
2019-02-11T03:07:09.235Z,0.50
2019-02-11T03:09:37.750Z,0.50
2019-02-11T03:12:06.219Z,0.40
2019-02-11T03:14:34.741Z,0.60
2019-02-11T03:17:03.280Z,0.50
2019-02-11T03:19:31.800Z,0.40
2019-02-11T03:22:00.323Z,0.40
2019-02-11T03:24:28.862Z,0.55
2019-02-11T03:26:57.383Z,0.50
2019-02-11T03:29:25.922Z,0.50
2019-02-11T03:31:54.372Z,0.40
2019-02-11T03:34:22.920Z,0.47
2019-02-11T03:36:51.451Z,0.60
2019-02-11T03:39:19.985Z,0.50
2019-02-11T03:41:48.504Z,0.40
2019-02-11T03:44:17.029Z,0.60
2019-02-11T03:46:45.577Z,0.50
2019-02-11T03:49:14.094Z,0.50
2019-02-11T03:51:42.758Z,0.50
2019-02-11T03:54:11.293Z,0.40
2019-02-11T03:56:39.819Z,0.47
2019-02-11T03:59:08.478Z,0.50
2019-02-11T04:01:36.952Z,0.50
2019-02-11T04:04:05.480Z,0.40
2019-02-11T04:06:33.994Z,0.55
2019-02-11T04:09:02.607Z,0.60
2019-02-11T04:11:31.191Z,0.53
2019-02-11T04:13:59.655Z,0.60
2019-02-11T04:16:28.184Z,0.70
2019-02-11T04:18:56.788Z,0.50
2019-02-11T04:21:25.315Z,0.60
2019-02-11T04:23:53.865Z,0.57
2019-02-11T04:26:22.382Z,0.85
2019-02-11T04:28:50.914Z,0.62
2019-02-11T04:31:19.447Z,0.60
2019-02-11T04:33:47.990Z,0.75
2019-02-11T04:36:16.516Z,0.68
2019-02-11T04:38:45.034Z,0.60
2019-02-11T04:41:13.596Z,0.65
2019-02-11T04:43:42.099Z,0.70
2019-02-11T04:46:11.054Z,0.60
2019-02-11T04:48:39.528Z,0.50
2019-02-11T04:51:08.044Z,0.68
2019-02-11T04:53:36.630Z,0.70
2019-02-11T04:56:05.248Z,0.60
2019-02-11T04:58:33.763Z,0.60
2019-02-11T05:01:02.287Z,0.62
2019-02-11T05:03:30.831Z,0.50
2019-02-11T05:05:59.274Z,0.62
2019-02-11T05:08:27.724Z,0.50
2019-02-11T05:10:56.262Z,0.60
2019-02-11T05:13:24.707Z,0.50
2019-02-11T05:15:53.233Z,0.50
2019-02-11T05:18:21.774Z,0.60
2019-02-11T05:20:50.320Z,0.50
2019-02-11T05:23:18.829Z,0.85
2019-02-11T05:25:47.358Z,0.50
2019-02-11T05:28:15.814Z,0.60
2019-02-11T05:30:44.363Z,0.70
2019-02-11T05:33:12.881Z,0.50
2019-02-11T05:35:41.423Z,0.40
2019-02-11T05:38:09.946Z,0.85
2019-02-11T05:40:38.400Z,0.70
2019-02-11T05:43:06.944Z,0.50
2019-02-11T05:45:35.463Z,0.50
2019-02-11T05:48:03.982Z,0.50
2019-02-11T05:50:32.522Z,0.60
2019-02-11T05:53:01.045Z,0.50
2019-02-11T05:55:29.573Z,0.60
2019-02-11T05:57:58.119Z,0.60
2019-02-11T06:00:26.636Z,0.60
2019-02-11T06:02:55.158Z,0.75
2019-02-11T06:05:23.623Z,1.35
2019-02-11T06:07:52.143Z,0.60
2019-02-11T06:10:20.664Z,0.90
2019-02-11T06:12:49.202Z,0.70
2019-02-11T06:15:17.650Z,0.70
2019-02-11T06:17:46.167Z,0.70
2019-02-11T06:20:14.714Z,1.00
2019-02-11T06:22:43.235Z,0.78
2019-02-11T06:25:11.700Z,0.95
2019-02-11T06:27:40.238Z,0.72
2019-02-11T06:30:11.693Z,0.78
2019-02-11T06:32:40.239Z,0.70
2019-02-11T06:35:09.503Z,0.80
2019-02-11T06:37:38.022Z,0.70
2019-02-11T06:40:09.335Z,0.65
2019-02-11T06:42:37.855Z,0.60
2019-02-11T06:45:13.050Z,0.60
2019-02-11T06:47:41.216Z,0.72
2019-02-11T06:50:12.600Z,0.70
2019-02-11T06:52:41.195Z,1.10
2019-02-11T06:55:11.574Z,0.90
2019-02-11T06:57:40.015Z,0.70
2019-02-11T07:00:11.598Z,0.90
2019-02-11T07:02:40.063Z,0.90
2019-02-11T07:05:08.656Z,0.88
2019-02-11T07:07:37.167Z,1.27
2019-02-11T07:10:10.943Z,0.90
2019-02-11T07:12:39.604Z,0.95
2019-02-11T07:15:11.087Z,1.12
2019-02-11T07:17:39.679Z,1.17
2019-02-11T07:20:10.039Z,1.45
2019-02-11T07:22:38.582Z,1.37
2019-02-11T07:25:08.644Z,1.15
2019-02-11T07:27:37.166Z,1.32
2019-02-11T07:30:08.943Z,1.12
2019-02-11T07:32:37.454Z,1.02
2019-02-11T07:35:06.043Z,1.10
2019-02-11T07:37:34.524Z,1.15
2019-02-11T07:40:03.574Z,1.30
2019-02-11T07:42:33.665Z,1.20
2019-02-11T07:45:02.273Z,1.10
2019-02-11T07:47:30.863Z,1.72
2019-02-11T07:49:59.307Z,1.45
2019-02-11T07:52:27.847Z,1.12
2019-02-11T07:54:56.375Z,1.20
2019-02-11T07:57:24.918Z,0.90
2019-02-11T07:59:53.435Z,1.37
2019-02-11T08:02:21.893Z,1.40
2019-02-11T08:04:50.504Z,1.00
2019-02-11T08:07:19.028Z,1.00
2019-02-11T08:09:47.551Z,1.55
2019-02-11T08:12:16.095Z,1.25
2019-02-11T08:14:44.610Z,1.40
2019-02-11T08:17:13.135Z,1.17
2019-02-11T08:19:41.678Z,1.25
2019-02-11T08:22:10.130Z,1.30
2019-02-11T08:24:38.650Z,1.25
2019-02-11T08:27:07.193Z,1.17
2019-02-11T08:29:35.706Z,1.40
2019-02-11T08:32:04.154Z,1.35
2019-02-11T08:34:32.701Z,1.00
2019-02-11T08:37:01.216Z,1.62
2019-02-11T08:39:29.813Z,1.10
2019-02-11T08:41:58.357Z,1.17
2019-02-11T08:44:26.875Z,1.12
2019-02-11T08:46:55.404Z,1.07
2019-02-11T08:49:23.949Z,1.20
2019-02-11T08:51:52.468Z,1.30
2019-02-11T08:54:21.011Z,1.40
2019-02-11T08:56:49.528Z,1.25
2019-02-11T08:59:18.057Z,1.30
2019-02-11T09:01:46.595Z,1.20
2019-02-11T09:04:18.992Z,1.10
2019-02-11T09:06:45.213Z,1.40
2019-02-11T09:09:14.292Z,1.17
2019-02-11T09:11:42.956Z,1.20
2019-02-11T09:14:11.492Z,1.45
2019-02-11T09:16:40.006Z,1.30
2019-02-11T09:19:08.527Z,1.10
2019-02-11T09:21:37.076Z,1.32
2019-02-11T09:24:05.735Z,1.10
2019-02-11T09:26:34.257Z,1.00
2019-02-11T09:29:03.305Z,1.00
2019-02-11T09:31:31.830Z,1.30
2019-02-11T09:34:00.359Z,1.10
2019-02-11T09:36:28.894Z,1.10
2019-02-11T09:38:57.348Z,1.25
2019-02-11T09:41:25.967Z,1.30
2019-02-11T09:43:54.631Z,1.22
2019-02-11T09:46:23.148Z,1.12
2019-02-11T09:48:51.823Z,1.45
2019-02-11T09:51:21.880Z,1.17
2019-02-11T09:53:50.476Z,1.10
2019-02-11T09:56:19.957Z,1.10
2019-02-11T09:58:48.476Z,0.80
2019-02-11T10:01:17.000Z,1.42
2019-02-11T10:03:45.547Z,1.25
2019-02-11T10:06:14.067Z,2.30
2019-02-11T10:08:42.588Z,1.20
2019-02-11T10:11:11.269Z,0.90
2019-02-11T10:13:39.855Z,1.00
2019-02-11T10:16:12.621Z,0.80
2019-02-11T10:18:38.567Z,1.17
2019-02-11T10:21:07.083Z,1.40
2019-02-11T10:23:35.631Z,1.07
2019-02-11T10:26:04.292Z,1.20
2019-02-11T10:28:32.808Z,1.50
2019-02-11T10:31:01.423Z,1.25
2019-02-11T10:33:29.866Z,1.25
2019-02-11T10:35:58.456Z,1.20
2019-02-11T10:38:27.658Z,3.37
2019-02-11T10:40:56.411Z,1.22
2019-02-11T10:43:25.075Z,1.15
2019-02-11T10:45:53.619Z,0.95
2019-02-11T10:48:22.069Z,1.45
2019-02-11T10:50:50.591Z,1.62
2019-02-11T10:53:19.138Z,1.42
2019-02-11T10:55:47.729Z,1.30
2019-02-11T10:58:16.247Z,1.40
2019-02-11T11:00:45.898Z,1.25
2019-02-11T11:03:14.427Z,1.42
2019-02-11T11:05:43.015Z,1.10
2019-02-11T11:08:11.565Z,1.65
2019-02-11T11:10:40.455Z,1.37
2019-02-11T11:13:08.977Z,1.37
2019-02-11T11:15:37.587Z,1.22
2019-02-11T11:18:07.051Z,1.00
2019-02-11T11:20:35.706Z,1.60
2019-02-11T11:23:04.388Z,1.27
2019-02-11T11:25:32.975Z,1.30
2019-02-11T11:28:01.546Z,1.30
2019-02-11T11:30:30.478Z,1.32
2019-02-11T11:32:59.066Z,1.40
2019-02-11T11:35:27.586Z,1.90
2019-02-11T11:37:56.192Z,1.02
2019-02-11T11:40:25.158Z,1.52
2019-02-11T11:42:53.682Z,1.55
2019-02-11T11:45:22.213Z,1.40
2019-02-11T11:47:50.830Z,1.85
2019-02-11T11:50:19.414Z,1.72
2019-02-11T11:52:47.980Z,1.40
2019-02-11T11:55:18.886Z,1.42
2019-02-11T11:57:47.590Z,1.50
2019-02-11T12:00:22.131Z,1.37
2019-02-11T12:03:02.143Z,1.67
2019-02-11T12:05:21.541Z,1.45
2019-02-11T12:07:50.172Z,1.47
2019-02-11T12:10:18.764Z,1.25
2019-02-11T12:12:47.448Z,1.52
2019-02-11T12:15:22.018Z,1.00
2019-02-11T12:17:50.873Z,1.15
2019-02-11T12:20:19.866Z,1.50
2019-02-11T12:22:48.481Z,1.37
2019-02-11T12:25:18.246Z,1.40
2019-02-11T12:27:46.838Z,1.12
2019-02-11T12:30:23.670Z,1.27
2019-02-11T12:32:54.838Z,1.45
2019-02-11T12:35:22.369Z,1.40
2019-02-11T12:37:51.005Z,1.00
2019-02-11T12:40:19.636Z,1.55
2019-02-11T12:42:48.226Z,1.57
2019-02-11T12:45:24.640Z,1.10
2019-02-11T12:47:53.376Z,1.77
2019-02-11T12:50:21.890Z,1.20
2019-02-11T12:52:50.453Z,1.57
2019-02-11T12:55:19.681Z,2.70
2019-02-11T12:57:48.195Z,1.50
2019-02-11T13:00:21.697Z,3.37
2019-02-11T13:02:50.554Z,4.15
2019-02-11T13:05:23.128Z,2.15
2019-02-11T13:07:49.505Z,2.10
2019-02-11T13:10:21.644Z,1.85
2019-02-11T13:12:50.240Z,1.85
2019-02-11T13:15:58.670Z,1.80
2019-02-11T13:17:49.830Z,1.50
2019-02-11T13:20:19.256Z,2.12
2019-02-11T13:22:48.046Z,2.52
2019-02-11T13:25:19.602Z,2.00
2019-02-11T13:27:48.195Z,2.35
2019-02-11T13:30:21.298Z,1.77
2019-02-11T13:32:49.907Z,2.35
2019-02-11T13:35:18.440Z,2.30
2019-02-11T13:37:47.057Z,2.02
2019-02-11T13:40:15.671Z,2.65
2019-02-11T13:42:44.315Z,3.22
2019-02-11T13:45:20.868Z,2.35
2019-02-11T13:47:56.784Z,1.85
2019-02-11T13:50:28.958Z,2.02
2019-02-11T13:52:57.645Z,1.65
2019-02-11T13:55:30.424Z,1.62
2019-02-11T13:57:57.487Z,1.52
2019-02-11T14:00:33.986Z,1.80
2019-02-11T14:03:04.923Z,1.60
2019-02-11T14:05:34.094Z,1.77
2019-02-11T14:08:03.060Z,2.02
2019-02-11T14:10:31.869Z,1.77
2019-02-11T14:13:00.455Z,1.57
2019-02-11T14:15:29.172Z,1.77
2019-02-11T14:18:12.083Z,2.77
2019-02-11T14:20:36.242Z,3.83
2019-02-11T14:23:05.283Z,2.52
2019-02-11T14:25:43.824Z,1.80
2019-02-11T14:28:04.479Z,1.72
2019-02-11T14:30:33.078Z,1.70
2019-02-11T14:33:01.755Z,1.50
2019-02-11T14:35:30.370Z,2.55
2019-02-11T14:38:01.842Z,2.05
2019-02-11T14:40:29.127Z,1.20
2019-02-11T14:42:57.665Z,1.65
2019-02-11T14:45:26.276Z,1.60
2019-02-11T14:47:54.793Z,1.22
2019-02-11T14:50:23.310Z,1.90
2019-02-11T14:52:51.859Z,1.07
2019-02-11T14:55:20.387Z,1.75
2019-02-11T14:57:48.909Z,1.62
2019-02-11T15:00:20.730Z,1.15
2019-02-11T15:02:49.317Z,1.20
2019-02-11T15:05:18.782Z,1.27
2019-02-11T15:07:47.795Z,1.10
2019-02-11T15:10:16.757Z,1.42
2019-02-11T15:12:45.338Z,1.15
2019-02-11T15:15:14.424Z,0.85
2019-02-11T15:17:44.287Z,1.20
2019-02-11T15:20:17.263Z,1.25
2019-02-11T15:22:45.811Z,1.20
2019-02-11T15:25:18.486Z,1.22
2019-02-11T15:27:47.018Z,0.82
2019-02-11T15:30:17.603Z,1.10
2019-02-11T15:32:46.184Z,1.15
2019-02-11T15:35:14.804Z,1.62
2019-02-11T15:37:43.517Z,0.90
2019-02-11T15:40:14.313Z,1.15
2019-02-11T15:42:42.860Z,1.37
2019-02-11T15:45:13.418Z,1.27
2019-02-11T15:47:42.083Z,1.37
2019-02-11T15:50:12.465Z,1.20
2019-02-11T15:52:41.214Z,1.20
2019-02-11T15:55:20.836Z,1.17
2019-02-11T15:57:49.413Z,1.20
2019-02-11T16:00:22.374Z,1.30
2019-02-11T16:02:51.753Z,1.35
2019-02-11T16:05:20.669Z,1.45
2019-02-11T16:07:49.207Z,1.52
2019-02-11T16:10:23.540Z,1.22
2019-02-11T16:12:52.069Z,1.57
2019-02-11T16:15:20.656Z,1.40
2019-02-11T16:17:49.270Z,1.20
2019-02-11T16:20:18.007Z,1.85
2019-02-11T16:22:46.536Z,2.33
2019-02-11T16:25:15.918Z,2.92
2019-02-11T16:27:44.517Z,3.42
2019-02-11T16:30:18.954Z,3.27
2019-02-11T16:32:47.630Z,1.72
2019-02-11T16:35:17.607Z,2.25
2019-02-11T16:37:46.262Z,1.75
2019-02-11T16:40:20.095Z,1.40
2019-02-11T16:42:48.838Z,1.20
2019-02-11T16:45:17.395Z,1.30
2019-02-11T16:47:45.937Z,1.10
2019-02-11T16:50:14.602Z,2.42
2019-02-11T16:52:43.190Z,1.40
2019-02-11T16:55:12.468Z,1.40
2019-02-11T16:57:40.984Z,1.57
2019-02-11T17:00:17.538Z,1.65
2019-02-11T17:02:46.127Z,1.10
2019-02-11T17:05:14.987Z,1.37
2019-02-11T17:07:43.676Z,1.20
2019-02-11T17:10:13.603Z,0.85
2019-02-11T17:12:42.314Z,0.70
2019-02-11T17:15:18.340Z,0.90
2019-02-11T17:17:48.605Z,1.30
2019-02-11T17:20:17.358Z,1.15
2019-02-11T17:22:45.970Z,0.80
2019-02-11T17:25:15.265Z,0.68
2019-02-11T17:27:43.848Z,1.30
2019-02-11T17:30:24.458Z,0.98
2019-02-11T17:32:53.115Z,0.75
2019-02-11T17:35:21.663Z,1.10
2019-02-11T17:37:50.186Z,1.35
2019-02-11T17:40:18.655Z,1.55
2019-02-11T17:42:47.183Z,0.95
2019-02-11T17:45:18.447Z,1.80
2019-02-11T17:47:46.976Z,1.00
2019-02-11T17:50:15.519Z,1.12
2019-02-11T17:52:44.216Z,1.25
2019-02-11T17:55:14.307Z,2.33
2019-02-11T17:57:42.882Z,1.25
2019-02-11T18:00:18.896Z,1.55
2019-02-11T18:02:47.487Z,1.40
2019-02-11T18:05:16.077Z,1.67
2019-02-11T18:07:44.634Z,1.55
2019-02-11T18:10:13.162Z,1.57
2019-02-11T18:12:41.695Z,1.37
2019-02-11T18:15:11.175Z,1.30
2019-02-11T18:17:39.615Z,1.37
2019-02-11T18:20:09.605Z,1.25
2019-02-11T18:22:38.295Z,1.25
2019-02-11T18:25:08.655Z,2.40
2019-02-11T18:27:37.171Z,4.30
2019-02-11T18:30:09.103Z,2.10
2019-02-11T18:32:37.794Z,2.70
2019-02-11T18:35:11.616Z,2.00
2019-02-11T18:37:40.134Z,1.82
2019-02-11T18:40:12.104Z,1.35
2019-02-11T18:42:40.884Z,1.00
2019-02-11T18:45:11.949Z,1.25
2019-02-11T18:47:40.527Z,1.17
2019-02-11T18:50:15.701Z,1.40
2019-02-11T18:52:44.456Z,1.35
2019-02-11T18:55:14.914Z,1.60
2019-02-11T18:57:43.519Z,1.55
2019-02-11T19:00:15.406Z,1.22
2019-02-11T19:02:44.162Z,1.80
2019-02-11T19:05:13.218Z,1.72
2019-02-11T19:07:41.671Z,1.40
2019-02-11T19:10:12.450Z,2.27
2019-02-11T19:12:41.199Z,1.40
2019-02-11T19:15:12.307Z,1.37
2019-02-11T19:17:40.825Z,0.98
2019-02-11T19:20:11.611Z,2.12
2019-02-11T19:22:40.072Z,1.50
2019-02-11T19:25:10.327Z,1.42
2019-02-11T19:27:38.918Z,0.98
2019-02-11T19:30:25.612Z,1.45
2019-02-11T19:32:54.206Z,0.98
2019-02-11T19:35:22.718Z,1.10
2019-02-11T19:37:51.328Z,1.90
2019-02-11T19:40:22.675Z,1.35
2019-02-11T19:42:51.256Z,1.22
2019-02-11T19:45:21.174Z,3.17
2019-02-11T19:47:49.771Z,1.60
2019-02-11T19:50:18.746Z,1.30
2019-02-11T19:52:47.629Z,1.22
2019-02-11T19:55:16.795Z,1.40
2019-02-11T19:57:45.334Z,1.15
2019-02-11T20:00:17.923Z,1.00
2019-02-11T20:02:46.592Z,1.45
2019-02-11T20:05:15.272Z,1.50
2019-02-11T20:07:43.795Z,1.90
2019-02-11T20:10:15.104Z,2.12
2019-02-11T20:12:43.774Z,1.95
2019-02-11T20:15:15.379Z,1.95
2019-02-11T20:17:44.040Z,1.57
2019-02-11T20:20:17.742Z,2.77
2019-02-11T20:22:46.277Z,1.87
2019-02-11T20:25:14.878Z,1.47
2019-02-11T20:27:43.409Z,2.10
2019-02-11T20:30:24.074Z,1.72
2019-02-11T20:32:52.788Z,1.98
2019-02-11T20:35:21.366Z,1.85
2019-02-11T20:37:49.819Z,1.47
2019-02-11T20:40:21.070Z,2.00
2019-02-11T20:42:49.667Z,2.00
2019-02-11T20:45:20.527Z,1.85
2019-02-11T20:47:49.083Z,1.60
2019-02-11T20:50:17.679Z,1.70
2019-02-11T20:52:46.344Z,1.50
2019-02-11T20:55:15.227Z,1.77
2019-02-11T20:57:45.011Z,1.55
2019-02-11T21:00:18.771Z,1.87
2019-02-11T21:02:47.244Z,2.25
2019-02-11T21:05:16.030Z,1.95
2019-02-11T21:07:44.544Z,2.55
2019-02-11T21:10:21.454Z,1.92
2019-02-11T21:12:49.975Z,2.05
2019-02-11T21:15:18.511Z,1.82
2019-02-11T21:17:46.981Z,2.00
2019-02-11T21:20:21.293Z,2.15
2019-02-11T21:22:49.878Z,2.60
2019-02-11T21:25:18.326Z,1.80
2019-02-11T21:27:47.058Z,2.10
2019-02-11T21:30:16.023Z,2.10
2019-02-11T21:32:44.549Z,2.10
2019-02-11T21:35:13.733Z,2.00
2019-02-11T21:37:42.327Z,2.60
2019-02-11T21:40:10.838Z,2.40
2019-02-11T21:42:39.308Z,2.35
2019-02-11T21:45:10.943Z,2.70
2019-02-11T21:47:39.531Z,2.90
2019-02-11T21:50:13.763Z,2.45
2019-02-11T21:52:42.288Z,2.60
2019-02-11T21:55:13.077Z,2.47
2019-02-11T21:57:41.599Z,2.25
2019-02-11T22:00:13.167Z,2.27
2019-02-11T22:02:41.702Z,2.80
2019-02-11T22:05:10.490Z,2.30
2019-02-11T22:07:39.003Z,2.40
2019-02-11T22:10:16.339Z,2.40
2019-02-11T22:12:44.863Z,2.60
2019-02-11T22:15:14.646Z,2.83
2019-02-11T22:17:43.128Z,3.10
2019-02-11T22:20:17.058Z,3.02
2019-02-11T22:22:45.647Z,3.15
2019-02-11T22:25:14.430Z,3.47
2019-02-11T22:27:43.119Z,2.90
2019-02-11T22:30:17.531Z,3.22
2019-02-11T22:32:46.135Z,3.17
2019-02-11T22:35:14.717Z,3.22
2019-02-11T22:37:43.243Z,3.42
2019-02-11T22:40:14.027Z,3.05
2019-02-11T22:42:42.660Z,2.80
2019-02-11T22:45:13.950Z,3.30
2019-02-11T22:47:42.557Z,3.30
2019-02-11T22:50:12.847Z,4.00
2019-02-11T22:52:41.514Z,2.98
2019-02-11T22:55:14.970Z,3.05
2019-02-11T22:57:43.636Z,3.37
2019-02-11T23:00:40.913Z,3.95
2019-02-11T23:03:09.567Z,3.37
2019-02-11T23:05:38.185Z,2.67
2019-02-11T23:08:06.706Z,3.45
2019-02-11T23:10:35.163Z,3.75
2019-02-11T23:13:03.683Z,3.52
2019-02-11T23:15:32.266Z,4.40
2019-02-11T23:18:00.744Z,3.35
2019-02-11T23:20:29.271Z,4.00
2019-02-11T23:22:57.813Z,3.40
2019-02-11T23:25:26.336Z,4.03
2019-02-11T23:27:54.850Z,3.27
2019-02-11T23:30:23.462Z,3.80
2019-02-11T23:32:52.251Z,3.62
2019-02-11T23:35:20.708Z,4.70
2019-02-11T23:37:49.320Z,3.92
2019-02-11T23:40:17.860Z,4.05
2019-02-11T23:42:46.378Z,3.80
2019-02-11T23:45:14.983Z,4.25
2019-02-11T23:47:43.581Z,4.58
2019-02-11T23:50:12.634Z,4.97
2019-02-11T23:52:41.118Z,4.05
2019-02-11T23:55:10.364Z,4.78
2019-02-11T23:57:38.817Z,4.42
